createdAt,value
2023-05-19T00:01:53.331Z,55.52
2023-05-19T00:04:20.400Z,54.98
2023-05-19T00:06:51.145Z,54.91
2023-05-19T00:09:18.580Z,54.85
2023-05-19T00:11:45.561Z,55.24
2023-05-19T00:14:12.863Z,55.34
2023-05-19T00:16:40.211Z,55.85
2023-05-19T00:19:06.999Z,56.10
2023-05-19T00:21:33.796Z,56.49
2023-05-19T00:24:01.910Z,56.19
2023-05-19T00:26:28.591Z,56.51
2023-05-19T00:28:55.502Z,56.48
2023-05-19T00:31:22.366Z,56.62
2023-05-19T00:33:49.180Z,55.95
2023-05-19T00:36:16.328Z,56.16
2023-05-19T00:38:43.243Z,56.27
2023-05-19T00:41:11.301Z,56.42
2023-05-19T00:43:38.072Z,56.20
2023-05-19T00:46:04.838Z,56.12
2023-05-19T00:48:31.453Z,56.07
2023-05-19T00:51:00.895Z,56.05
2023-05-19T00:53:28.352Z,55.81
2023-05-19T00:55:55.134Z,56.20
2023-05-19T00:58:24.391Z,56.34
2023-05-19T01:00:51.140Z,56.56
2023-05-19T01:03:17.899Z,56.60
2023-05-19T01:05:44.840Z,56.84
2023-05-19T01:08:11.651Z,57.46
2023-05-19T01:10:38.752Z,57.46
2023-05-19T01:13:06.353Z,57.12
2023-05-19T01:15:45.605Z,57.48
2023-05-19T01:18:15.857Z,57.53
2023-05-19T01:20:48.345Z,57.57
2023-05-19T01:23:24.600Z,57.38
2023-05-19T01:26:17.701Z,57.73
2023-05-19T01:29:07.485Z,57.88
2023-05-19T01:31:37.729Z,58.12
2023-05-19T01:34:06.381Z,58.78
2023-05-19T01:36:33.896Z,58.73
2023-05-19T01:39:02.209Z,59.15
2023-05-19T01:41:30.696Z,59.12
2023-05-19T01:43:58.404Z,59.09
2023-05-19T01:46:25.493Z,59.56
2023-05-19T01:48:54.778Z,59.95
2023-05-19T01:51:21.540Z,59.72
2023-05-19T01:53:48.179Z,59.97
2023-05-19T01:56:20.493Z,60.95
2023-05-19T01:58:52.904Z,61.31
2023-05-19T02:01:29.045Z,61.90
2023-05-19T02:04:16.437Z,62.42
2023-05-19T02:06:49.825Z,62.45
2023-05-19T02:09:23.195Z,62.83
2023-05-19T02:11:55.376Z,62.76
2023-05-19T02:14:29.727Z,63.28
2023-05-19T02:16:57.907Z,62.98
2023-05-19T02:19:28.355Z,63.02
2023-05-19T02:21:57.599Z,64.02
2023-05-19T02:24:24.613Z,63.99
2023-05-19T02:26:51.425Z,64.02
2023-05-19T02:29:18.085Z,64.41
2023-05-19T02:31:44.787Z,64.59
2023-05-19T02:34:11.459Z,64.45
2023-05-19T02:36:41.032Z,65.02
2023-05-19T02:39:07.833Z,65.38
2023-05-19T02:41:34.459Z,65.25
2023-05-19T02:44:01.288Z,65.81
2023-05-19T02:46:28.009Z,65.95
2023-05-19T02:48:55.634Z,66.20
2023-05-19T02:51:22.313Z,66.00
2023-05-19T02:53:50.591Z,66.33
2023-05-19T02:56:17.292Z,65.67
2023-05-19T02:58:43.934Z,65.98
2023-05-19T03:01:10.864Z,65.57
2023-05-19T03:03:37.653Z,65.58
2023-05-19T03:06:05.110Z,65.68
2023-05-19T03:08:31.777Z,65.90
2023-05-19T03:10:59.843Z,66.45
2023-05-19T03:13:26.635Z,65.95
2023-05-19T03:15:53.301Z,66.44
2023-05-19T03:18:19.968Z,66.17
2023-05-19T03:20:47.011Z,65.74
2023-05-19T03:23:15.692Z,65.64
2023-05-19T03:25:42.447Z,64.66
2023-05-19T03:28:10.793Z,64.16
2023-05-19T03:30:37.669Z,64.04
2023-05-19T03:33:04.544Z,63.79
2023-05-19T03:35:31.438Z,62.36
2023-05-19T03:37:58.083Z,61.52
2023-05-19T03:40:24.826Z,60.33
2023-05-19T03:42:51.591Z,59.52
2023-05-19T03:45:19.636Z,58.40
2023-05-19T03:47:46.607Z,58.00
2023-05-19T03:50:15.778Z,57.76
2023-05-19T03:52:42.631Z,57.30
2023-05-19T03:55:10.006Z,57.30
2023-05-19T03:57:36.605Z,56.75
2023-05-19T04:00:03.894Z,56.86
2023-05-19T04:02:32.391Z,56.33
2023-05-19T04:04:59.171Z,55.45
2023-05-19T04:07:26.070Z,55.19
2023-05-19T04:09:52.688Z,54.45
2023-05-19T04:12:19.477Z,55.35
2023-05-19T04:14:46.041Z,55.91
2023-05-19T04:17:12.789Z,55.60
2023-05-19T04:19:40.912Z,55.92
2023-05-19T04:22:07.728Z,56.24
2023-05-19T04:24:34.657Z,55.74
2023-05-19T04:27:01.590Z,55.46
2023-05-19T04:29:28.268Z,54.55
2023-05-19T04:31:55.539Z,52.80
2023-05-19T04:34:22.122Z,52.45
2023-05-19T04:36:53.247Z,49.63
2023-05-19T04:39:20.332Z,49.33
2023-05-19T04:41:46.913Z,49.34
2023-05-19T04:44:13.864Z,49.37
2023-05-19T04:46:40.574Z,44.73
2023-05-19T04:49:07.334Z,41.89
2023-05-19T04:51:34.294Z,44.09
2023-05-19T04:54:02.524Z,44.79
2023-05-19T04:56:29.215Z,40.30
2023-05-19T04:58:55.812Z,36.02
2023-05-19T05:01:22.600Z,33.09
2023-05-19T05:03:51.888Z,31.91
2023-05-19T05:06:18.856Z,30.75
2023-05-19T05:08:45.604Z,30.56
2023-05-19T05:11:14.204Z,29.65
2023-05-19T05:13:41.534Z,29.87
2023-05-19T05:16:09.637Z,28.92
2023-05-19T05:18:36.838Z,29.14
2023-05-19T05:21:04.299Z,28.82
2023-05-19T05:23:31.473Z,28.54
2023-05-19T05:25:58.975Z,28.67
2023-05-19T05:28:27.119Z,28.95
2023-05-19T05:30:53.891Z,29.83
2023-05-19T05:33:20.929Z,30.50
2023-05-19T05:35:47.667Z,29.67
2023-05-19T05:38:14.242Z,28.98
2023-05-19T05:40:41.044Z,30.00
2023-05-19T05:43:07.830Z,31.31
2023-05-19T05:45:35.868Z,31.81
2023-05-19T05:48:03.196Z,32.48
2023-05-19T05:50:30.413Z,32.19
2023-05-19T05:53:01.148Z,33.95
2023-05-19T05:55:28.609Z,34.97
2023-05-19T05:57:55.377Z,35.34
2023-05-19T06:00:22.357Z,35.13
2023-05-19T06:02:50.997Z,34.31
2023-05-19T06:05:17.940Z,34.59
2023-05-19T06:07:44.783Z,34.40
2023-05-19T06:10:11.752Z,34.34
2023-05-19T06:12:38.577Z,35.03
2023-05-19T06:15:06.655Z,35.56
2023-05-19T06:17:33.477Z,36.61
2023-05-19T06:20:01.875Z,36.55
2023-05-19T06:22:28.628Z,35.94
2023-05-19T06:24:55.354Z,35.55
2023-05-19T06:27:21.986Z,36.26
2023-05-19T06:29:48.578Z,36.33
2023-05-19T06:32:15.690Z,36.52
2023-05-19T06:34:42.260Z,36.03
2023-05-19T06:37:10.422Z,35.08
2023-05-19T06:39:38.146Z,34.77
2023-05-19T06:42:05.332Z,34.92
2023-05-19T06:44:31.971Z,35.16
2023-05-19T06:46:58.606Z,35.27
2023-05-19T06:49:25.413Z,34.33
2023-05-19T06:51:52.056Z,33.55
2023-05-19T06:54:20.073Z,32.60
2023-05-19T06:56:47.179Z,33.95
2023-05-19T06:59:13.816Z,33.94
2023-05-19T07:01:40.507Z,32.69
2023-05-19T07:04:07.566Z,33.53
2023-05-19T07:06:34.498Z,32.57
2023-05-19T07:09:01.135Z,32.57
2023-05-19T07:11:29.715Z,31.83
2023-05-19T07:13:56.460Z,33.28
2023-05-19T07:16:23.139Z,33.32
2023-05-19T07:18:49.854Z,33.03
2023-05-19T07:21:16.853Z,33.83
2023-05-19T07:23:43.510Z,34.02
2023-05-19T07:26:10.114Z,33.38
2023-05-19T07:28:40.764Z,34.15
2023-05-19T07:31:08.558Z,34.56
2023-05-19T07:33:35.359Z,35.15
2023-05-19T07:36:02.174Z,33.71
2023-05-19T07:38:30.614Z,33.44
2023-05-19T07:40:57.196Z,34.23
2023-05-19T07:43:23.800Z,33.52
2023-05-19T07:45:51.815Z,33.58
2023-05-19T07:48:18.806Z,33.61
2023-05-19T07:50:46.622Z,34.44
2023-05-19T07:53:13.359Z,33.53
2023-05-19T07:55:40.264Z,33.85
2023-05-19T07:58:07.049Z,33.23
2023-05-19T08:00:33.960Z,33.37
2023-05-19T08:03:02.665Z,33.52
2023-05-19T08:05:29.332Z,32.81
2023-05-19T08:07:56.531Z,32.63
2023-05-19T08:10:23.098Z,33.57
2023-05-19T08:12:49.957Z,33.63
2023-05-19T08:15:16.761Z,33.21
2023-05-19T08:17:43.495Z,33.50
2023-05-19T08:20:12.219Z,32.76
2023-05-19T08:22:39.222Z,32.06
2023-05-19T08:25:06.639Z,32.21
2023-05-19T08:27:33.649Z,32.29
2023-05-19T08:30:00.486Z,32.97
2023-05-19T08:32:27.784Z,31.38
2023-05-19T08:34:54.802Z,31.69
2023-05-19T08:37:22.831Z,31.61
2023-05-19T08:39:49.443Z,30.77
2023-05-19T08:42:16.453Z,31.30
2023-05-19T08:44:43.208Z,31.15
2023-05-19T08:47:10.711Z,31.09
2023-05-19T08:49:43.818Z,32.01
2023-05-19T08:52:19.420Z,32.17
2023-05-19T08:55:04.287Z,31.24
2023-05-19T08:57:31.905Z,30.79
2023-05-19T09:00:00.027Z,31.13
2023-05-19T09:02:27.777Z,30.18
2023-05-19T09:04:55.539Z,29.72
2023-05-19T09:07:24.346Z,30.70
2023-05-19T09:09:51.131Z,30.82
2023-05-19T09:12:20.239Z,30.25
2023-05-19T09:14:46.917Z,29.96
2023-05-19T09:17:13.619Z,30.14
2023-05-19T09:19:43.483Z,31.11
2023-05-19T09:22:10.262Z,31.24
2023-05-19T09:24:37.151Z,31.12
2023-05-19T09:27:04.236Z,30.52
2023-05-19T09:29:32.432Z,30.79
2023-05-19T09:31:59.230Z,31.65
2023-05-19T09:34:26.146Z,31.02
2023-05-19T09:36:53.865Z,31.10
2023-05-19T09:39:22.599Z,30.28
2023-05-19T09:41:51.906Z,30.82
2023-05-19T09:44:22.232Z,30.76
2023-05-19T09:46:51.210Z,29.59
2023-05-19T09:49:21.651Z,31.48
2023-05-19T09:51:53.706Z,32.72
2023-05-19T09:54:20.603Z,32.06
2023-05-19T09:56:52.030Z,31.67
2023-05-19T09:59:19.911Z,31.67
2023-05-19T10:01:48.680Z,31.35
2023-05-19T10:04:17.413Z,32.54
2023-05-19T10:06:44.369Z,31.44
2023-05-19T10:09:11.668Z,31.75
2023-05-19T10:11:39.021Z,31.51
2023-05-19T10:14:06.428Z,30.06
2023-05-19T10:16:33.593Z,29.09
2023-05-19T10:19:02.783Z,30.11
2023-05-19T10:21:30.832Z,29.64
2023-05-19T10:23:57.740Z,31.00
2023-05-19T10:26:26.581Z,31.76
2023-05-19T10:28:53.422Z,32.56
2023-05-19T10:31:22.293Z,33.43
2023-05-19T10:34:16.376Z,32.90
2023-05-19T10:36:50.301Z,33.19
2023-05-19T10:39:18.931Z,33.50
2023-05-19T10:41:58.781Z,32.08
2023-05-19T10:44:39.541Z,31.44
2023-05-19T10:47:06.831Z,31.31
2023-05-19T10:49:37.208Z,32.65
2023-05-19T10:52:19.623Z,31.98
2023-05-19T10:54:46.479Z,33.53
2023-05-19T10:57:15.000Z,32.94
2023-05-19T10:59:41.590Z,32.03
2023-05-19T11:02:08.905Z,31.62
2023-05-19T11:04:40.172Z,32.96
2023-05-19T11:07:10.288Z,31.94
2023-05-19T11:09:41.133Z,32.82
2023-05-19T11:12:08.643Z,32.16
2023-05-19T11:14:35.370Z,33.21
2023-05-19T11:17:02.479Z,33.36
2023-05-19T11:19:30.988Z,32.95
2023-05-19T11:22:07.947Z,33.53
2023-05-19T11:24:42.956Z,32.05
2023-05-19T11:27:25.516Z,31.43
2023-05-19T11:29:52.786Z,32.09
2023-05-19T11:32:21.072Z,31.84
2023-05-19T11:34:48.588Z,31.45
2023-05-19T11:37:15.485Z,31.83
2023-05-19T11:39:46.107Z,32.00
2023-05-19T11:42:13.106Z,32.48
2023-05-19T11:44:40.248Z,32.08
2023-05-19T11:47:07.155Z,31.91
2023-05-19T11:49:34.117Z,32.78
2023-05-19T11:52:01.025Z,31.31
2023-05-19T11:54:32.067Z,30.38
2023-05-19T11:57:02.166Z,30.22
2023-05-19T11:59:34.197Z,30.97
2023-05-19T12:02:13.275Z,30.89
2023-05-19T12:04:41.985Z,31.06
2023-05-19T12:07:10.576Z,31.52
2023-05-19T12:09:37.663Z,32.40
2023-05-19T12:12:05.892Z,33.32
2023-05-19T12:14:33.463Z,32.89
2023-05-19T12:17:10.514Z,32.55
2023-05-19T12:19:37.535Z,30.57
2023-05-19T12:22:06.860Z,30.79
2023-05-19T12:24:34.400Z,32.85
2023-05-19T12:27:10.031Z,32.62
2023-05-19T12:29:37.675Z,32.34
2023-05-19T12:32:11.235Z,33.31
2023-05-19T12:34:39.791Z,31.69
2023-05-19T12:37:06.502Z,33.31
2023-05-19T12:39:33.285Z,32.60
2023-05-19T12:42:04.775Z,31.58
2023-05-19T12:44:37.197Z,31.32
2023-05-19T12:47:04.875Z,31.90
2023-05-19T12:49:31.766Z,31.40
2023-05-19T12:52:03.849Z,32.34
2023-05-19T12:54:33.719Z,31.33
2023-05-19T12:57:00.365Z,32.25
2023-05-19T12:59:37.955Z,32.13
2023-05-19T13:02:06.983Z,32.68
2023-05-19T13:04:34.233Z,31.54
2023-05-19T13:07:00.911Z,31.28
2023-05-19T13:09:27.698Z,31.89
2023-05-19T13:11:54.538Z,31.96
2023-05-19T13:14:21.509Z,32.14
2023-05-19T13:16:48.396Z,33.10
2023-05-19T13:21:49.898Z,32.57
2023-05-19T13:24:16.782Z,31.42
2023-05-19T13:26:43.406Z,32.62
2023-05-19T13:29:10.245Z,32.17
2023-05-19T13:31:37.129Z,31.17
2023-05-19T13:34:03.826Z,32.71
2023-05-19T13:36:32.198Z,32.54
2023-05-19T13:38:58.944Z,33.05
2023-05-19T13:41:25.506Z,32.62
2023-05-19T13:43:52.622Z,32.89
2023-05-19T13:46:24.200Z,32.69
2023-05-19T13:48:56.299Z,30.95
2023-05-19T13:51:23.082Z,30.99
2023-05-19T13:53:51.598Z,30.37
2023-05-19T13:56:18.281Z,31.89
2023-05-19T13:58:44.902Z,31.88
2023-05-19T14:01:11.560Z,30.96
2023-05-19T14:03:38.315Z,31.25
2023-05-19T14:06:05.115Z,31.79
2023-05-19T14:08:32.194Z,31.70
2023-05-19T14:11:00.334Z,30.71
2023-05-19T14:13:33.821Z,31.35
2023-05-19T14:16:02.298Z,32.04
2023-05-19T14:18:30.629Z,32.34
2023-05-19T14:20:57.369Z,32.04
2023-05-19T14:23:24.267Z,33.34
2023-05-19T14:25:51.060Z,31.50
2023-05-19T14:28:19.135Z,31.47
2023-05-19T14:30:46.178Z,30.38
2023-05-19T14:33:12.951Z,31.03
2023-05-19T14:35:40.598Z,30.67
2023-05-19T14:38:07.267Z,31.71
2023-05-19T14:40:36.164Z,31.53
2023-05-19T14:43:03.155Z,31.12
2023-05-19T14:45:31.229Z,30.68
2023-05-19T14:47:57.918Z,31.60
2023-05-19T14:50:25.737Z,31.00
2023-05-19T14:52:53.649Z,30.50
2023-05-19T14:55:20.908Z,31.25
2023-05-19T14:57:47.744Z,30.05
2023-05-19T15:00:14.672Z,29.93
2023-05-19T15:02:42.793Z,30.94
2023-05-19T15:05:09.631Z,30.69
2023-05-19T15:07:36.331Z,30.95
2023-05-19T15:10:03.188Z,31.01
2023-05-19T15:12:30.159Z,30.51
2023-05-19T15:14:57.123Z,31.28
2023-05-19T15:17:23.878Z,31.77
2023-05-19T15:19:52.289Z,30.18
2023-05-19T15:22:19.356Z,30.68
2023-05-19T15:24:46.180Z,29.71
2023-05-19T15:27:12.899Z,30.81
2023-05-19T15:29:39.496Z,30.11
2023-05-19T15:32:07.242Z,30.22
2023-05-19T15:34:33.935Z,30.41
2023-05-19T15:37:02.292Z,30.78
2023-05-19T15:39:30.180Z,30.87
2023-05-19T15:41:57.060Z,30.61
2023-05-19T15:44:23.869Z,30.49
2023-05-19T15:46:50.718Z,30.85
2023-05-19T15:49:17.512Z,31.14
2023-05-19T15:51:44.591Z,31.38
2023-05-19T15:54:12.622Z,30.66
2023-05-19T15:56:39.479Z,30.01
2023-05-19T15:59:06.318Z,30.23
2023-05-19T16:01:33.355Z,30.42
2023-05-19T16:04:00.090Z,29.83
2023-05-19T16:06:27.247Z,30.16
2023-05-19T16:08:54.172Z,30.74
2023-05-19T16:11:22.221Z,30.22
2023-05-19T16:13:49.000Z,30.50
2023-05-19T16:16:15.978Z,29.91
2023-05-19T16:18:42.881Z,29.32
2023-05-19T16:21:09.624Z,30.12
2023-05-19T16:23:36.428Z,30.06
2023-05-19T16:26:03.176Z,30.70
2023-05-19T16:28:31.400Z,30.41
2023-05-19T16:30:58.293Z,30.80
2023-05-19T16:33:25.064Z,30.82
2023-05-19T16:35:51.820Z,31.09
2023-05-19T16:38:18.854Z,31.53
2023-05-19T16:40:45.638Z,31.09
2023-05-19T16:43:12.344Z,31.17
2023-05-19T16:45:40.423Z,31.06
2023-05-19T16:48:07.311Z,30.63
2023-05-19T16:50:34.785Z,30.75
2023-05-19T16:53:01.630Z,30.20
2023-05-19T16:55:28.293Z,30.15
2023-05-19T16:57:55.167Z,31.28
2023-05-19T17:00:21.977Z,31.06
2023-05-19T17:02:50.302Z,30.91
2023-05-19T17:05:17.475Z,30.43
2023-05-19T17:07:44.316Z,31.00
2023-05-19T17:10:10.964Z,31.35
2023-05-19T17:12:37.711Z,31.94
2023-05-19T17:15:05.365Z,31.42
2023-05-19T17:17:32.338Z,32.19
2023-05-19T17:20:00.449Z,31.59
2023-05-19T17:22:28.719Z,31.90
2023-05-19T17:24:56.835Z,31.40
2023-05-19T17:27:23.622Z,31.30
2023-05-19T17:29:50.229Z,32.07
2023-05-19T17:32:17.031Z,32.31
2023-05-19T17:34:43.812Z,31.58
2023-05-19T17:37:12.137Z,31.62
2023-05-19T17:39:39.095Z,31.05
2023-05-19T17:42:05.948Z,31.56
2023-05-19T17:44:32.925Z,32.42
2023-05-19T17:46:59.823Z,32.86
2023-05-19T17:49:26.688Z,33.14
2023-05-19T17:51:54.102Z,33.17
2023-05-19T17:54:22.894Z,33.82
2023-05-19T17:56:51.073Z,33.63
2023-05-19T17:59:19.115Z,33.24
2023-05-19T18:01:46.397Z,33.86
2023-05-19T18:04:15.950Z,33.57
2023-05-19T18:06:44.619Z,34.25
2023-05-19T18:09:13.602Z,34.20
2023-05-19T18:11:41.895Z,34.11
2023-05-19T18:14:08.567Z,33.90
2023-05-19T18:16:35.302Z,34.48
2023-05-19T18:19:02.816Z,34.48
2023-05-19T18:21:29.579Z,34.90
2023-05-19T18:23:56.266Z,34.43
2023-05-19T18:26:23.210Z,34.59
2023-05-19T18:28:51.430Z,35.07
2023-05-19T18:31:18.094Z,34.81
2023-05-19T18:33:45.842Z,35.10
2023-05-19T18:36:12.720Z,35.34
2023-05-19T18:38:39.431Z,35.31
2023-05-19T18:41:07.111Z,35.46
2023-05-19T18:43:33.937Z,36.31
2023-05-19T18:46:02.136Z,36.40
2023-05-19T18:48:29.610Z,36.35
2023-05-19T18:50:56.459Z,36.59
2023-05-19T18:53:23.387Z,36.50
2023-05-19T18:55:50.028Z,37.12
2023-05-19T18:58:17.463Z,37.08
2023-05-19T19:00:44.524Z,36.52
2023-05-19T19:03:12.819Z,36.61
2023-05-19T19:05:39.668Z,37.51
2023-05-19T19:08:06.503Z,37.42
2023-05-19T19:10:33.491Z,37.73
2023-05-19T19:13:00.523Z,37.77
2023-05-19T19:15:27.155Z,38.06
2023-05-19T19:17:54.029Z,38.61
2023-05-19T19:20:22.152Z,38.19
2023-05-19T19:22:49.403Z,38.58
2023-05-19T19:25:16.053Z,38.34
2023-05-19T19:27:42.820Z,38.53
2023-05-19T19:30:10.179Z,39.10
2023-05-19T19:32:36.927Z,38.42
2023-05-19T19:35:04.348Z,39.27
2023-05-19T19:37:32.321Z,39.79
2023-05-19T19:39:59.055Z,39.93
2023-05-19T19:42:27.583Z,39.75
2023-05-19T19:44:55.647Z,40.21
2023-05-19T19:47:22.368Z,40.58
2023-05-19T19:49:49.136Z,40.30
2023-05-19T19:52:17.115Z,40.41
2023-05-19T19:54:45.364Z,40.48
2023-05-19T19:57:12.065Z,40.38
2023-05-19T19:59:38.890Z,40.86
2023-05-19T20:02:05.690Z,40.89
2023-05-19T20:04:32.641Z,41.17
2023-05-19T20:06:59.498Z,41.36
2023-05-19T20:09:26.281Z,40.98
2023-05-19T20:11:54.514Z,41.01
2023-05-19T20:14:21.174Z,41.17
2023-05-19T20:16:47.925Z,40.76
2023-05-19T20:19:14.863Z,41.66
2023-05-19T20:21:41.588Z,41.03
2023-05-19T20:24:08.259Z,41.64
2023-05-19T20:26:34.868Z,41.82
2023-05-19T20:29:03.484Z,41.93
2023-05-19T20:31:30.120Z,42.10
2023-05-19T20:33:57.312Z,41.96
2023-05-19T20:36:25.518Z,42.38
2023-05-19T20:38:52.152Z,42.49
2023-05-19T20:41:18.900Z,42.24
2023-05-19T20:43:45.502Z,42.65
2023-05-19T20:46:13.633Z,43.48
2023-05-19T20:48:40.347Z,43.22
2023-05-19T20:51:07.169Z,43.04
2023-05-19T20:53:33.742Z,43.17
2023-05-19T20:56:00.312Z,43.57
2023-05-19T20:58:27.446Z,43.21
2023-05-19T21:00:54.048Z,43.85
2023-05-19T21:03:23.483Z,44.07
2023-05-19T21:05:50.325Z,43.65
2023-05-19T21:08:17.298Z,43.72
2023-05-19T21:10:43.994Z,44.52
2023-05-19T21:13:10.676Z,44.47
2023-05-19T21:15:37.315Z,44.09
2023-05-19T21:18:04.378Z,44.86
2023-05-19T21:20:32.666Z,44.87
2023-05-19T21:22:59.496Z,45.36
2023-05-19T21:25:26.713Z,45.20
2023-05-19T21:27:53.325Z,45.66
2023-05-19T21:30:20.150Z,45.29
2023-05-19T21:32:47.147Z,45.27
2023-05-19T21:35:14.036Z,45.99
2023-05-19T21:37:42.167Z,45.88
2023-05-19T21:40:09.398Z,45.87
2023-05-19T21:42:36.466Z,45.50
2023-05-19T21:45:03.510Z,44.70
2023-05-19T21:47:30.100Z,45.38
2023-05-19T21:49:57.029Z,45.31
2023-05-19T21:52:23.772Z,45.77
2023-05-19T21:54:51.984Z,45.50
2023-05-19T21:57:18.582Z,46.09
2023-05-19T21:59:45.402Z,45.37
2023-05-19T22:02:12.334Z,45.90
2023-05-19T22:04:39.031Z,45.87
2023-05-19T22:07:06.380Z,46.76
2023-05-19T22:09:33.067Z,46.23
2023-05-19T22:12:01.177Z,46.82
2023-05-19T22:14:27.834Z,46.69
2023-05-19T22:16:54.821Z,46.22
2023-05-19T22:19:21.522Z,45.96
2023-05-19T22:21:48.334Z,46.59
2023-05-19T22:24:15.887Z,46.89
2023-05-19T22:26:42.553Z,47.35
2023-05-19T22:29:10.523Z,47.47
2023-05-19T22:31:37.274Z,47.50
2023-05-19T22:34:04.048Z,46.85
2023-05-19T22:36:30.653Z,47.29
2023-05-19T22:38:57.238Z,47.69
2023-05-19T22:41:23.869Z,47.61
2023-05-19T22:43:50.628Z,48.00
2023-05-19T22:46:18.593Z,47.91
2023-05-19T22:48:45.275Z,47.78
2023-05-19T22:51:12.325Z,47.76
2023-05-19T22:53:38.938Z,48.10
2023-05-19T22:56:06.013Z,48.20
2023-05-19T22:58:32.644Z,48.05
2023-05-19T23:00:59.255Z,47.83
2023-05-19T23:03:27.284Z,48.86
2023-05-19T23:05:53.988Z,48.73
2023-05-19T23:08:20.736Z,48.73
2023-05-19T23:10:47.332Z,48.18
2023-05-19T23:13:15.195Z,48.08
2023-05-19T23:15:41.801Z,47.88
2023-05-19T23:18:08.554Z,48.14
2023-05-19T23:20:36.521Z,48.90
2023-05-19T23:23:03.270Z,49.03
2023-05-19T23:25:29.849Z,49.02
2023-05-19T23:27:56.436Z,49.15
2023-05-19T23:30:23.166Z,49.55
2023-05-19T23:32:49.822Z,49.43
2023-05-19T23:35:17.556Z,49.54
2023-05-19T23:37:46.527Z,50.37
2023-05-19T23:40:13.493Z,50.41
2023-05-19T23:42:40.287Z,50.08
2023-05-19T23:45:08.244Z,50.07
2023-05-19T23:47:35.218Z,50.28
2023-05-19T23:50:02.165Z,50.36
2023-05-19T23:52:28.818Z,51.22
2023-05-19T23:54:56.824Z,51.15
2023-05-19T23:57:23.771Z,51.33
2023-05-19T23:59:50.536Z,51.28
